createdAt,value
2022-08-26T00:02:02.587Z,64.73
2022-08-26T00:04:32.595Z,65.14
2022-08-26T00:07:02.079Z,66.02
2022-08-26T00:09:32.877Z,65.29
2022-08-26T00:12:06.714Z,66.10
2022-08-26T00:14:36.480Z,65.54
2022-08-26T00:17:06.334Z,65.35
2022-08-26T00:19:38.070Z,64.39
2022-08-26T00:22:09.472Z,64.79
2022-08-26T00:24:40.960Z,64.79
2022-08-26T00:27:12.719Z,65.20
2022-08-26T00:29:42.239Z,64.98
2022-08-26T00:32:12.479Z,64.98
2022-08-26T00:34:44.133Z,65.98
2022-08-26T00:37:16.297Z,65.01
2022-08-26T00:39:45.769Z,66.43
2022-08-26T00:42:15.257Z,66.06
2022-08-26T00:44:45.738Z,65.40
2022-08-26T00:47:24.299Z,65.41
2022-08-26T00:49:56.580Z,65.58
2022-08-26T00:52:27.752Z,66.26
2022-08-26T00:55:03.750Z,65.35
2022-08-26T00:57:35.023Z,64.02
2022-08-26T01:00:09.705Z,64.02
2022-08-26T01:02:40.394Z,64.61
2022-08-26T01:05:12.558Z,64.61
2022-08-26T01:07:42.704Z,64.08
2022-08-26T01:10:17.163Z,64.56
2022-08-26T01:12:50.356Z,64.56
2022-08-26T01:15:23.135Z,64.42
2022-08-26T01:17:52.971Z,64.44
2022-08-26T01:20:31.774Z,65.31
2022-08-26T01:23:04.842Z,65.15
2022-08-26T01:25:37.532Z,65.16
2022-08-26T01:28:13.950Z,66.34
2022-08-26T01:30:46.612Z,65.58
2022-08-26T01:33:19.255Z,65.37
2022-08-26T01:35:49.480Z,65.26
2022-08-26T01:38:19.502Z,65.69
2022-08-26T01:40:49.918Z,65.62
2022-08-26T01:43:23.236Z,65.62
2022-08-26T01:45:54.863Z,66.77
2022-08-26T01:48:28.421Z,65.72
2022-08-26T01:50:58.428Z,66.25
2022-08-26T01:53:28.850Z,65.02
2022-08-26T01:56:02.123Z,65.02
2022-08-26T01:58:35.925Z,65.07
2022-08-26T02:01:06.549Z,66.68
2022-08-26T02:03:57.332Z,66.33
2022-08-26T02:06:28.092Z,66.49
2022-08-26T02:09:00.916Z,65.98
2022-08-26T02:11:30.929Z,65.38
2022-08-26T02:14:03.762Z,66.18
2022-08-26T02:16:36.595Z,66.06
2022-08-26T02:19:07.687Z,67.22
2022-08-26T02:21:41.022Z,66.05
2022-08-26T02:24:14.296Z,65.42
2022-08-26T02:26:46.414Z,65.63
2022-08-26T02:29:22.385Z,65.75
2022-08-26T02:31:55.121Z,65.66
2022-08-26T02:34:31.017Z,65.97
2022-08-26T02:37:03.568Z,65.50
2022-08-26T02:39:35.052Z,64.70
2022-08-26T02:42:07.057Z,64.49
2022-08-26T02:44:36.913Z,65.24
2022-08-26T02:47:08.463Z,66.13
2022-08-26T02:49:39.942Z,66.57
2022-08-26T02:52:12.568Z,66.40
2022-08-26T02:54:42.110Z,65.84
2022-08-26T02:57:12.614Z,65.84
2022-08-26T02:59:42.464Z,66.82
2022-08-26T03:02:12.799Z,66.67
2022-08-26T03:04:57.686Z,66.40
2022-08-26T03:07:14.433Z,66.96
2022-08-26T03:09:44.213Z,66.30
2022-08-26T03:12:14.225Z,65.23
2022-08-26T03:14:44.006Z,65.55
2022-08-26T03:17:14.034Z,64.84
2022-08-26T03:19:43.868Z,64.84
2022-08-26T03:22:14.492Z,65.46
2022-08-26T03:24:46.042Z,65.00
2022-08-26T03:27:16.013Z,64.93
2022-08-26T03:30:04.743Z,65.09
2022-08-26T03:32:34.229Z,65.29
2022-08-26T03:35:04.067Z,65.24
2022-08-26T03:37:33.917Z,65.42
2022-08-26T03:40:04.375Z,65.40
2022-08-26T03:42:36.412Z,66.32
2022-08-26T03:45:10.667Z,66.33
2022-08-26T03:47:41.303Z,66.59
2022-08-26T03:50:14.740Z,67.12
2022-08-26T03:52:47.130Z,65.85
2022-08-26T03:55:18.324Z,66.27
2022-08-26T03:57:48.084Z,66.00
2022-08-26T04:00:18.732Z,66.35
2022-08-26T04:02:51.213Z,66.24
2022-08-26T04:05:23.545Z,66.89
2022-08-26T04:07:54.005Z,66.28
2022-08-26T04:10:29.126Z,65.53
2022-08-26T04:13:00.213Z,65.03
2022-08-26T04:15:30.417Z,64.89
2022-08-26T04:18:00.184Z,65.10
2022-08-26T04:20:29.787Z,65.50
2022-08-26T04:22:59.552Z,65.81
2022-08-26T04:25:29.319Z,65.48
2022-08-26T04:27:59.107Z,65.77
2022-08-26T04:30:28.866Z,65.20
2022-08-26T04:32:58.723Z,64.98
2022-08-26T04:35:28.560Z,65.23
2022-08-26T04:37:59.608Z,65.53
2022-08-26T04:40:29.376Z,65.53
2022-08-26T04:42:59.138Z,65.59
2022-08-26T04:45:30.249Z,65.22
2022-08-26T04:48:00.018Z,65.37
2022-08-26T04:50:29.850Z,65.52
2022-08-26T04:53:00.258Z,65.00
2022-08-26T04:55:39.804Z,65.25
2022-08-26T04:58:02.478Z,66.17
2022-08-26T05:00:32.240Z,66.17
2022-08-26T05:03:02.117Z,66.13
2022-08-26T05:05:31.989Z,65.64
2022-08-26T05:08:01.963Z,65.27
2022-08-26T05:10:33.141Z,64.91
2022-08-26T05:13:03.643Z,64.59
2022-08-26T05:15:36.684Z,65.55
2022-08-26T05:18:08.796Z,65.54
2022-08-26T05:20:44.592Z,65.35
2022-08-26T05:23:15.673Z,64.75
2022-08-26T05:25:48.575Z,65.28
2022-08-26T05:28:20.072Z,66.43
2022-08-26T05:30:52.783Z,66.52
2022-08-26T05:33:23.279Z,65.88
2022-08-26T05:35:53.201Z,65.42
2022-08-26T05:38:23.338Z,64.18
2022-08-26T05:40:54.675Z,64.18
2022-08-26T05:43:24.147Z,64.47
2022-08-26T05:45:54.074Z,64.69
2022-08-26T05:48:24.654Z,64.69
2022-08-26T05:50:54.766Z,65.80
2022-08-26T05:53:25.908Z,65.37
2022-08-26T05:55:58.139Z,64.78
2022-08-26T05:58:28.550Z,65.19
2022-08-26T06:01:01.097Z,64.25
2022-08-26T06:03:31.786Z,63.71
2022-08-26T06:06:04.925Z,63.40
2022-08-26T06:08:37.638Z,64.29
2022-08-26T06:11:18.356Z,64.54
2022-08-26T06:13:43.738Z,64.53
2022-08-26T06:16:16.158Z,64.53
2022-08-26T06:18:48.622Z,63.83
2022-08-26T06:21:30.169Z,63.73
2022-08-26T06:24:20.977Z,63.71
2022-08-26T06:26:56.272Z,63.71
2022-08-26T06:29:27.758Z,63.72
2022-08-26T06:31:58.176Z,63.84
2022-08-26T06:34:31.582Z,64.11
2022-08-26T06:37:03.348Z,63.23
2022-08-26T06:39:33.254Z,63.35
2022-08-26T06:42:03.416Z,62.46
2022-08-26T06:44:36.101Z,62.71
2022-08-26T06:47:06.976Z,63.25
2022-08-26T06:49:37.109Z,62.39
2022-08-26T06:52:08.412Z,62.39
2022-08-26T06:54:41.457Z,62.91
2022-08-26T06:57:14.279Z,62.65
2022-08-26T06:59:45.000Z,62.83
2022-08-26T07:02:15.212Z,63.27
2022-08-26T07:04:47.942Z,63.06
2022-08-26T07:07:17.841Z,62.02
2022-08-26T07:09:49.308Z,62.02
2022-08-26T07:12:20.544Z,61.97
2022-08-26T07:14:50.682Z,62.09
2022-08-26T07:17:20.732Z,61.41
2022-08-26T07:19:52.926Z,62.43
2022-08-26T07:22:22.467Z,61.67
2022-08-26T07:24:53.793Z,62.33
2022-08-26T07:27:23.839Z,61.42
2022-08-26T07:29:56.717Z,61.38
2022-08-26T07:32:26.482Z,61.74
2022-08-26T07:34:56.249Z,60.80
2022-08-26T07:37:26.151Z,60.44
2022-08-26T07:39:55.956Z,60.81
2022-08-26T07:42:25.585Z,61.29
2022-08-26T07:44:55.356Z,61.67
2022-08-26T07:47:26.221Z,60.81
2022-08-26T07:49:58.494Z,62.10
2022-08-26T07:52:30.412Z,61.21
2022-08-26T07:55:04.280Z,61.58
2022-08-26T07:57:34.466Z,61.98
2022-08-26T08:00:08.572Z,61.42
2022-08-26T08:02:40.188Z,61.40
2022-08-26T08:05:10.078Z,61.30
2022-08-26T08:07:44.723Z,60.95
2022-08-26T08:10:21.029Z,60.93
2022-08-26T08:12:51.970Z,60.67
2022-08-26T08:15:26.108Z,60.61
2022-08-26T08:18:00.233Z,60.53
2022-08-26T08:20:29.807Z,60.45
2022-08-26T08:23:00.050Z,59.86
2022-08-26T08:25:29.832Z,59.86
2022-08-26T08:28:00.180Z,60.62
2022-08-26T08:30:30.489Z,60.06
2022-08-26T08:33:01.596Z,59.69
2022-08-26T08:35:32.506Z,59.92
2022-08-26T08:38:04.132Z,59.91
2022-08-26T08:40:34.201Z,59.62
2022-08-26T08:43:23.959Z,60.32
2022-08-26T08:45:59.935Z,59.53
2022-08-26T08:48:33.012Z,59.16
2022-08-26T08:51:20.647Z,59.55
2022-08-26T08:53:54.618Z,59.73
2022-08-26T08:56:33.725Z,59.04
2022-08-26T08:59:14.530Z,59.12
2022-08-26T09:02:03.045Z,59.12
2022-08-26T09:04:52.490Z,59.45
2022-08-26T09:07:25.666Z,59.03
2022-08-26T09:10:20.100Z,58.76
2022-08-26T09:12:51.421Z,59.58
2022-08-26T09:15:30.675Z,59.21
2022-08-26T09:18:18.728Z,59.46
2022-08-26T09:21:00.177Z,59.17
2022-08-26T09:23:30.712Z,59.33
2022-08-26T09:26:17.835Z,58.97
2022-08-26T09:28:51.705Z,59.16
2022-08-26T09:31:29.267Z,58.83
2022-08-26T09:34:08.029Z,59.43
2022-08-26T09:36:43.821Z,58.70
2022-08-26T09:39:31.549Z,59.36
2022-08-26T09:42:16.680Z,59.09
2022-08-26T09:44:56.351Z,59.39
2022-08-26T09:47:35.087Z,60.15
2022-08-26T09:50:13.788Z,60.00
2022-08-26T09:52:43.627Z,58.93
2022-08-26T09:55:16.380Z,60.16
2022-08-26T09:57:55.092Z,59.45
2022-08-26T10:00:45.673Z,59.34
2022-08-26T10:03:18.794Z,59.04
2022-08-26T10:06:03.617Z,58.78
2022-08-26T10:08:38.845Z,58.57
2022-08-26T10:11:29.117Z,58.57
2022-08-26T10:14:04.658Z,58.20
2022-08-26T10:16:37.461Z,58.41
2022-08-26T10:19:16.122Z,58.21
2022-08-26T10:22:01.388Z,58.21
2022-08-26T10:24:34.942Z,57.63
2022-08-26T10:27:23.210Z,58.10
2022-08-26T10:29:56.793Z,58.59
2022-08-26T10:32:35.495Z,57.87
2022-08-26T10:35:10.845Z,57.62
2022-08-26T10:37:48.011Z,58.91
2022-08-26T10:40:28.005Z,58.22
2022-08-26T10:43:12.512Z,57.92
2022-08-26T10:45:57.271Z,57.30
2022-08-26T10:48:47.562Z,57.29
2022-08-26T10:51:20.368Z,58.06
2022-08-26T10:53:57.772Z,58.17
2022-08-26T10:56:41.933Z,58.17
2022-08-26T10:59:17.473Z,58.02
2022-08-26T11:02:06.294Z,57.47
2022-08-26T11:04:50.750Z,57.55
2022-08-26T11:07:39.056Z,57.42
2022-08-26T11:10:23.544Z,57.27
2022-08-26T11:12:59.803Z,58.12
2022-08-26T11:15:30.216Z,58.05
2022-08-26T11:18:07.727Z,57.41
2022-08-26T11:20:44.753Z,56.97
2022-08-26T11:23:26.381Z,56.66
2022-08-26T11:25:59.753Z,56.22
2022-08-26T11:28:49.999Z,56.43
2022-08-26T11:31:29.626Z,56.20
2022-08-26T11:34:08.694Z,56.84
2022-08-26T11:36:49.087Z,56.72
2022-08-26T11:39:36.962Z,57.13
2022-08-26T11:42:28.290Z,57.13
2022-08-26T11:45:02.375Z,57.21
2022-08-26T11:47:32.451Z,57.65
2022-08-26T11:50:11.825Z,57.65
2022-08-26T11:52:41.634Z,57.77
2022-08-26T11:55:14.662Z,57.48
2022-08-26T11:57:50.680Z,56.40
2022-08-26T12:00:23.603Z,56.15
2022-08-26T12:02:55.630Z,55.85
2022-08-26T12:05:31.037Z,55.86
2022-08-26T12:08:03.133Z,55.41
2022-08-26T12:10:34.731Z,54.77
2022-08-26T12:13:07.100Z,54.03
2022-08-26T12:15:37.232Z,52.94
2022-08-26T12:18:28.845Z,54.00
2022-08-26T12:20:52.655Z,53.31
2022-08-26T12:23:26.802Z,53.43
2022-08-26T12:26:05.431Z,53.57
2022-08-26T12:28:44.463Z,52.77
2022-08-26T12:31:17.580Z,52.16
2022-08-26T12:33:49.476Z,51.40
2022-08-26T12:36:22.120Z,51.86
2022-08-26T12:38:53.709Z,51.79
2022-08-26T12:41:44.432Z,51.26
2022-08-26T12:44:36.553Z,53.02
2022-08-26T12:47:11.821Z,52.88
2022-08-26T12:49:43.628Z,53.14
2022-08-26T12:52:26.672Z,53.31
2022-08-26T12:55:00.465Z,53.74
2022-08-26T12:57:36.550Z,52.48
2022-08-26T13:00:28.496Z,52.48
2022-08-26T13:02:59.519Z,52.73
2022-08-26T13:05:35.508Z,52.73
2022-08-26T13:08:19.351Z,52.70
2022-08-26T13:10:50.685Z,52.98
2022-08-26T13:13:20.449Z,53.45
2022-08-26T13:15:50.100Z,54.45
2022-08-26T13:18:19.881Z,54.93
2022-08-26T13:20:49.396Z,55.11
2022-08-26T13:23:21.125Z,55.98
2022-08-26T13:25:51.505Z,54.74
2022-08-26T13:28:20.997Z,54.68
2022-08-26T13:30:50.762Z,54.58
2022-08-26T13:33:21.489Z,54.27
2022-08-26T13:35:51.257Z,54.49
2022-08-26T13:38:32.964Z,54.91
2022-08-26T13:40:52.805Z,54.54
2022-08-26T13:43:22.568Z,55.16
2022-08-26T13:45:52.319Z,55.03
2022-08-26T13:48:23.674Z,55.19
2022-08-26T13:50:53.751Z,54.77
2022-08-26T13:53:23.575Z,54.89
2022-08-26T13:55:53.338Z,54.89
2022-08-26T13:58:23.015Z,54.36
2022-08-26T14:00:55.567Z,53.84
2022-08-26T14:03:25.785Z,53.30
2022-08-26T14:05:55.891Z,53.23
2022-08-26T14:08:25.551Z,52.79
2022-08-26T14:10:55.485Z,52.63
2022-08-26T14:13:25.298Z,52.57
2022-08-26T14:15:56.444Z,52.56
2022-08-26T14:18:29.557Z,52.62
2022-08-26T14:21:00.144Z,52.29
2022-08-26T14:23:29.936Z,52.95
2022-08-26T14:26:00.040Z,52.57
2022-08-26T14:28:29.801Z,52.50
2022-08-26T14:30:59.954Z,51.87
2022-08-26T14:33:32.591Z,52.78
2022-08-26T14:36:20.418Z,53.22
2022-08-26T14:38:50.723Z,53.76
2022-08-26T14:41:21.528Z,53.33
2022-08-26T14:43:59.259Z,54.56
2022-08-26T14:46:34.821Z,54.12
2022-08-26T14:49:09.875Z,53.88
2022-08-26T14:51:36.994Z,54.11
2022-08-26T14:54:12.231Z,53.91
2022-08-26T14:56:51.160Z,53.14
2022-08-26T14:59:24.028Z,53.14
2022-08-26T15:01:54.705Z,53.64
2022-08-26T15:04:25.319Z,52.85
2022-08-26T15:06:57.086Z,52.59
2022-08-26T15:09:28.282Z,53.88
2022-08-26T15:11:58.045Z,54.38
2022-08-26T15:14:32.694Z,54.71
2022-08-26T15:16:59.642Z,54.28
2022-08-26T15:19:29.839Z,54.17
2022-08-26T15:21:59.589Z,54.06
2022-08-26T15:24:29.918Z,54.44
2022-08-26T15:26:59.685Z,54.38
2022-08-26T15:29:29.815Z,55.34
2022-08-26T15:32:01.581Z,54.56
2022-08-26T15:34:31.968Z,54.91
2022-08-26T15:37:02.004Z,54.09
2022-08-26T15:39:31.851Z,54.71
2022-08-26T15:42:02.076Z,54.29
2022-08-26T15:44:33.549Z,53.29
2022-08-26T15:47:03.518Z,53.19
2022-08-26T15:49:33.258Z,52.73
2022-08-26T15:52:05.294Z,52.01
2022-08-26T15:54:35.139Z,51.22
2022-08-26T15:57:08.194Z,50.99
2022-08-26T15:59:36.711Z,50.81
2022-08-26T16:02:08.083Z,51.57
2022-08-26T16:04:38.077Z,51.16
2022-08-26T16:07:07.845Z,51.92
2022-08-26T16:09:37.680Z,52.57
2022-08-26T16:12:08.570Z,52.94
2022-08-26T16:14:38.817Z,52.78
2022-08-26T16:17:08.596Z,53.06
2022-08-26T16:19:38.429Z,53.03
2022-08-26T16:22:09.591Z,52.74
2022-08-26T16:24:39.607Z,53.74
2022-08-26T16:27:09.849Z,53.97
2022-08-26T16:29:39.766Z,53.66
2022-08-26T16:32:11.487Z,53.66
2022-08-26T16:34:46.972Z,52.68
2022-08-26T16:37:14.785Z,52.97
2022-08-26T16:39:45.260Z,51.78
2022-08-26T16:42:15.235Z,51.62
2022-08-26T16:44:45.075Z,52.04
2022-08-26T16:47:15.967Z,52.30
2022-08-26T16:49:46.739Z,52.05
2022-08-26T16:52:16.383Z,52.05
2022-08-26T16:54:46.162Z,52.14
2022-08-26T16:57:16.000Z,52.45
2022-08-26T16:59:45.934Z,51.81
2022-08-26T17:02:15.858Z,51.71
2022-08-26T17:04:47.156Z,52.46
2022-08-26T17:07:17.107Z,52.38
2022-08-26T17:09:46.863Z,52.73
2022-08-26T17:12:17.211Z,52.71
2022-08-26T17:14:46.974Z,53.11
2022-08-26T17:17:16.743Z,52.79
2022-08-26T17:19:47.400Z,53.16
2022-08-26T17:22:17.612Z,52.99
2022-08-26T17:24:47.394Z,53.63
2022-08-26T17:27:17.152Z,53.37
2022-08-26T17:29:46.922Z,54.07
2022-08-26T17:32:17.048Z,54.32
2022-08-26T17:34:46.809Z,54.32
2022-08-26T17:37:17.348Z,53.97
2022-08-26T17:39:47.120Z,54.19
2022-08-26T17:42:16.788Z,54.63
2022-08-26T17:44:48.296Z,55.02
2022-08-26T17:47:18.418Z,55.15
2022-08-26T17:49:48.349Z,55.54
2022-08-26T17:52:18.109Z,55.59
2022-08-26T17:54:47.875Z,55.91
2022-08-26T17:57:17.639Z,55.91
2022-08-26T17:59:48.490Z,55.85
2022-08-26T18:02:18.340Z,55.84
2022-08-26T18:04:48.936Z,55.61
2022-08-26T18:07:19.025Z,55.95
2022-08-26T18:09:48.797Z,55.87
2022-08-26T18:12:18.298Z,55.24
2022-08-26T18:14:48.410Z,55.55
2022-08-26T18:17:19.420Z,55.55
2022-08-26T18:19:49.376Z,56.13
2022-08-26T18:22:19.150Z,55.71
2022-08-26T18:24:58.655Z,55.63
2022-08-26T18:27:20.102Z,55.08
2022-08-26T18:29:50.339Z,55.08
2022-08-26T18:32:20.098Z,55.71
2022-08-26T18:34:49.872Z,55.39
2022-08-26T18:37:19.630Z,55.72
2022-08-26T18:39:49.425Z,55.72
2022-08-26T18:42:19.042Z,55.87
2022-08-26T18:44:53.089Z,56.27
2022-08-26T18:47:23.091Z,56.70
2022-08-26T18:49:52.865Z,56.70
2022-08-26T18:52:22.787Z,56.57
2022-08-26T18:54:53.908Z,55.91
2022-08-26T18:57:23.900Z,55.84
2022-08-26T18:59:53.671Z,56.01
2022-08-26T19:02:24.317Z,56.11
2022-08-26T19:04:54.347Z,56.09
2022-08-26T19:07:24.094Z,55.93
2022-08-26T19:09:54.264Z,56.22
2022-08-26T19:12:26.974Z,56.28
2022-08-26T19:14:56.903Z,55.86
2022-08-26T19:17:27.054Z,55.84
2022-08-26T19:19:56.813Z,56.37
2022-08-26T19:22:26.573Z,55.85
2022-08-26T19:24:56.357Z,56.22
2022-08-26T19:27:26.119Z,55.99
2022-08-26T19:29:57.629Z,55.79
2022-08-26T19:32:27.197Z,55.74
2022-08-26T19:34:56.963Z,55.91
2022-08-26T19:37:26.737Z,55.83
2022-08-26T19:39:56.833Z,55.86
2022-08-26T19:42:26.765Z,55.75
2022-08-26T19:45:20.237Z,55.90
2022-08-26T19:47:41.825Z,55.70
2022-08-26T19:50:15.064Z,56.00
2022-08-26T19:52:45.195Z,55.88
2022-08-26T19:55:17.092Z,55.48
2022-08-26T19:57:47.023Z,55.50
2022-08-26T20:00:19.796Z,55.77
2022-08-26T20:02:50.425Z,56.09
2022-08-26T20:05:22.156Z,55.91
2022-08-26T20:07:52.327Z,55.83
2022-08-26T20:10:24.337Z,55.74
2022-08-26T20:12:54.339Z,56.07
2022-08-26T20:15:24.448Z,56.05
2022-08-26T20:17:56.192Z,55.62
2022-08-26T20:20:43.341Z,55.64
2022-08-26T20:23:13.176Z,55.64
2022-08-26T20:25:43.228Z,55.44
2022-08-26T20:28:13.001Z,55.21
2022-08-26T20:30:43.079Z,55.41
2022-08-26T20:33:12.846Z,55.90
2022-08-26T20:35:43.182Z,55.78
2022-08-26T20:38:13.021Z,55.48
2022-08-26T20:40:43.460Z,55.47
2022-08-26T20:43:13.254Z,55.26
2022-08-26T20:45:43.397Z,55.55
2022-08-26T20:48:14.493Z,55.08
2022-08-26T20:50:44.335Z,54.99
2022-08-26T20:53:14.352Z,55.04
2022-08-26T20:55:44.134Z,54.74
2022-08-26T20:58:13.981Z,53.79
2022-08-26T21:00:44.114Z,53.79
2022-08-26T21:03:14.223Z,53.83
2022-08-26T21:05:44.070Z,53.79
2022-08-26T21:08:13.915Z,53.46
2022-08-26T21:10:43.657Z,52.94
2022-08-26T21:13:15.114Z,52.60
2022-08-26T21:15:45.321Z,53.27
2022-08-26T21:18:15.100Z,53.59
2022-08-26T21:20:44.865Z,53.35
2022-08-26T21:23:14.700Z,53.06
2022-08-26T21:25:44.743Z,53.10
2022-08-26T21:28:14.515Z,52.58
2022-08-26T21:30:44.434Z,52.29
2022-08-26T21:33:14.271Z,52.89
2022-08-26T21:35:45.538Z,52.80
2022-08-26T21:38:15.173Z,52.55
2022-08-26T21:40:44.937Z,52.55
2022-08-26T21:43:20.606Z,52.25
2022-08-26T21:45:45.949Z,52.29
2022-08-26T21:48:15.735Z,51.91
2022-08-26T21:50:45.495Z,51.84
2022-08-26T21:53:15.424Z,51.33
2022-08-26T21:55:45.492Z,51.37
2022-08-26T21:58:15.741Z,50.93
2022-08-26T22:00:50.901Z,51.35
2022-08-26T22:03:20.458Z,51.38
2022-08-26T22:05:51.101Z,51.36
2022-08-26T22:08:23.350Z,51.17
2022-08-26T22:10:55.010Z,51.06
2022-08-26T22:13:29.225Z,51.19
2022-08-26T22:16:00.760Z,51.19
2022-08-26T22:18:30.941Z,52.07
2022-08-26T22:21:03.539Z,52.07
2022-08-26T22:23:34.929Z,51.68
2022-08-26T22:26:07.978Z,51.34
2022-08-26T22:28:39.249Z,51.81
2022-08-26T22:31:11.223Z,51.95
2022-08-26T22:33:42.762Z,52.17
2022-08-26T22:36:25.190Z,53.03
2022-08-26T22:38:56.802Z,53.34
2022-08-26T22:41:26.959Z,53.71
2022-08-26T22:43:56.728Z,53.72
2022-08-26T22:46:27.726Z,53.89
2022-08-26T22:48:57.754Z,54.20
2022-08-26T22:51:27.857Z,54.48
2022-08-26T22:53:57.985Z,54.35
2022-08-26T22:56:27.857Z,54.75
2022-08-26T22:58:57.922Z,54.75
2022-08-26T23:01:28.133Z,54.84
2022-08-26T23:03:58.181Z,54.97
2022-08-26T23:06:27.753Z,54.84
2022-08-26T23:08:57.527Z,54.84
2022-08-26T23:11:27.291Z,55.18
2022-08-26T23:13:57.234Z,55.64
2022-08-26T23:16:26.781Z,55.76
2022-08-26T23:18:56.485Z,56.51
2022-08-26T23:21:26.273Z,56.35
2022-08-26T23:23:56.200Z,56.35
2022-08-26T23:26:25.977Z,56.54
2022-08-26T23:28:56.393Z,57.12
2022-08-26T23:31:26.008Z,57.36
2022-08-26T23:34:13.574Z,57.36
2022-08-26T23:36:44.603Z,57.07
2022-08-26T23:39:15.554Z,57.31
2022-08-26T23:41:45.384Z,57.66
2022-08-26T23:44:14.973Z,57.73
2022-08-26T23:46:44.513Z,57.75
2022-08-26T23:49:14.345Z,58.00
2022-08-26T23:52:01.842Z,57.96
2022-08-26T23:54:33.073Z,57.97
2022-08-26T23:57:02.999Z,58.34
2022-08-26T23:59:33.869Z,58.45
